Muren, Indiana
Current Conditions -  °F | °C
As of 5:55 PM on Monday 22 Dec 2014 (Local Time) from KHNB Reporting Station
Overcast Overcast  
Wind Chill: 50°   Ceiling: 2300
Heat Index: 50°   Visibility: 10mi
Dew Point: 45°   Wind: 13mph
Humidity: 82%   Direction: 130°SE
Pressure: 29.68"   Gusts: NA
Location:  38.3488°N, 87.2217°W
Report Text: KHNB 222355Z AUTO 13011KT 10SM OVC023 10/07 A2968 RMK AO1 10100 20090 57020
Loading
Personal Weather Stations






























Interactive Weather Map New forecast layout! Learn more

10-Day Weather Forecast

Advertisements
Track Severe Weather on mobile